Terminal Aerodrome Forecast
Issued by NWS Cleveland, OH

Home | Current Version | Previous Version | Text Only | Print | Product List | Glossary Off
Versions: 1 2 3 4 5 6 7 8 9 10 11 12 13 14 15 16 17

383
FTUS41 KCLE 222344
TAFTOL
TAF
KTOL 222344Z 2300/2324 29006KT P6SM SCT030
     FM230700 VRB03KT P6SM BKN080
     FM231000 VRB03KT P6SM BKN013
     FM231200 29004KT P6SM BKN008 BKN017
     FM231500 29008KT P6SM BKN035
     FM232300 28007KT P6SM SCT210=

USA.gov is the U.S. government's official web portal to all federal, state and local government web resources and services.